sensor_id;sensor_type;location;lat;lon;timestamp;P1;durP1;ratioP1;P2;durP2;ratioP2
70213;SDS011;60138;55.808;37.078;2022-11-20T00:00:07;20.47;;;13.30;;
70213;SDS011;60138;55.808;37.078;2022-11-20T00:02:33;23.05;;;13.05;;
70213;SDS011;60138;55.808;37.078;2022-11-20T00:04:59;16.60;;;10.10;;
70213;SDS011;60138;55.808;37.078;2022-11-20T00:07:25;26.65;;;12.88;;
70213;SDS011;60138;55.808;37.078;2022-11-20T00:09:50;22.40;;;11.77;;
70213;SDS011;60138;55.808;37.078;2022-11-20T00:12:16;25.48;;;13.40;;
70213;SDS011;60138;55.808;37.078;2022-11-20T00:14:42;25.70;;;13.50;;
70213;SDS011;60138;55.808;37.078;2022-11-20T00:17:07;22.58;;;12.80;;
70213;SDS011;60138;55.808;37.078;2022-11-20T00:19:33;22.27;;;12.47;;
70213;SDS011;60138;55.808;37.078;2022-11-20T00:21:59;20.65;;;11.52;;
70213;SDS011;60138;55.808;37.078;2022-11-20T00:24:24;20.52;;;11.88;;
70213;SDS011;60138;55.808;37.078;2022-11-20T00:26:50;16.30;;;9.87;;
70213;SDS011;60138;55.808;37.078;2022-11-20T00:29:16;20.67;;;11.27;;
70213;SDS011;60138;55.808;37.078;2022-11-20T00:31:41;16.80;;;11.33;;
70213;SDS011;60138;55.808;37.078;2022-11-20T00:34:08;19.10;;;10.52;;
70213;SDS011;60138;55.808;37.078;2022-11-20T00:36:35;19.42;;;11.70;;
70213;SDS011;60138;55.808;37.078;2022-11-20T00:39:00;17.65;;;10.57;;
70213;SDS011;60138;55.808;37.078;2022-11-20T00:41:27;18.13;;;11.03;;
70213;SDS011;60138;55.808;37.078;2022-11-20T00:43:54;17.10;;;12.10;;
70213;SDS011;60138;55.808;37.078;2022-11-20T00:46:21;19.65;;;11.77;;
70213;SDS011;60138;55.808;37.078;2022-11-20T00:48:48;21.13;;;11.13;;
70213;SDS011;60138;55.808;37.078;2022-11-20T00:51:15;17.52;;;10.65;;
70213;SDS011;60138;55.808;37.078;2022-11-20T00:53:42;16.30;;;10.20;;
70213;SDS011;60138;55.808;37.078;2022-11-20T00:56:15;17.03;;;10.63;;
70213;SDS011;60138;55.808;37.078;2022-11-20T00:58:43;17.48;;;10.30;;
70213;SDS011;60138;55.808;37.078;2022-11-20T01:01:12;18.55;;;11.20;;
70213;SDS011;60138;55.808;37.078;2022-11-20T01:03:42;20.63;;;11.38;;
70213;SDS011;60138;55.808;37.078;2022-11-20T01:06:13;17.35;;;10.65;;
70213;SDS011;60138;55.808;37.078;2022-11-20T01:08:39;17.48;;;11.15;;
70213;SDS011;60138;55.808;37.078;2022-11-20T01:11:06;21.33;;;12.00;;
70213;SDS011;60138;55.808;37.078;2022-11-20T01:13:37;16.77;;;10.47;;
70213;SDS011;60138;55.808;37.078;2022-11-20T01:18:34;18.27;;;10.93;;
70213;SDS011;60138;55.808;37.078;2022-11-20T01:21:01;18.03;;;11.07;;
70213;SDS011;60138;55.808;37.078;2022-11-20T01:23:34;16.90;;;9.75;;
70213;SDS011;60138;55.808;37.078;2022-11-20T01:26:06;19.33;;;11.63;;
70213;SDS011;60138;55.808;37.078;2022-11-20T01:28:33;20.42;;;11.68;;
70213;SDS011;60138;55.808;37.078;2022-11-20T01:31:00;21.60;;;12.50;;
70213;SDS011;60138;55.808;37.078;2022-11-20T01:33:26;18.15;;;10.95;;
70213;SDS011;60138;55.808;37.078;2022-11-20T01:35:53;18.95;;;11.43;;
70213;SDS011;60138;55.808;37.078;2022-11-20T01:38:19;15.63;;;9.20;;
70213;SDS011;60138;55.808;37.078;2022-11-20T01:40:45;18.42;;;10.10;;
70213;SDS011;60138;55.808;37.078;2022-11-20T01:43:16;19.00;;;11.05;;
70213;SDS011;60138;55.808;37.078;2022-11-20T01:45:50;18.03;;;11.73;;
70213;SDS011;60138;55.808;37.078;2022-11-20T01:51:04;20.15;;;11.38;;
70213;SDS011;60138;55.808;37.078;2022-11-20T01:53:35;18.48;;;10.75;;
70213;SDS011;60138;55.808;37.078;2022-11-20T01:56:02;18.20;;;10.98;;
70213;SDS011;60138;55.808;37.078;2022-11-20T01:58:32;15.30;;;9.98;;
70213;SDS011;60138;55.808;37.078;2022-11-20T02:01:00;17.08;;;11.07;;
70213;SDS011;60138;55.808;37.078;2022-11-20T02:03:26;19.40;;;11.53;;
70213;SDS011;60138;55.808;37.078;2022-11-20T02:08:21;18.75;;;10.70;;
70213;SDS011;60138;55.808;37.078;2022-11-20T02:10:48;18.70;;;11.07;;
70213;SDS011;60138;55.808;37.078;2022-11-20T02:13:14;18.23;;;11.88;;
70213;SDS011;60138;55.808;37.078;2022-11-20T02:15:40;19.13;;;11.35;;
70213;SDS011;60138;55.808;37.078;2022-11-20T02:18:06;18.92;;;10.70;;
70213;SDS011;60138;55.808;37.078;2022-11-20T02:20:34;18.50;;;10.63;;
70213;SDS011;60138;55.808;37.078;2022-11-20T02:26:12;16.45;;;10.32;;
70213;SDS011;60138;55.808;37.078;2022-11-20T02:28:39;18.20;;;11.05;;
70213;SDS011;60138;55.808;37.078;2022-11-20T02:31:05;16.83;;;9.87;;
70213;SDS011;60138;55.808;37.078;2022-11-20T02:33:31;15.52;;;10.15;;
70213;SDS011;60138;55.808;37.078;2022-11-20T02:35:57;19.23;;;10.93;;
70213;SDS011;60138;55.808;37.078;2022-11-20T02:38:22;19.83;;;11.38;;
70213;SDS011;60138;55.808;37.078;2022-11-20T02:40:48;15.73;;;10.15;;
70213;SDS011;60138;55.808;37.078;2022-11-20T02:43:15;15.30;;;10.07;;
70213;SDS011;60138;55.808;37.078;2022-11-20T02:45:41;17.05;;;9.43;;
70213;SDS011;60138;55.808;37.078;2022-11-20T02:48:06;15.17;;;9.97;;
70213;SDS011;60138;55.808;37.078;2022-11-20T02:50:32;15.85;;;9.27;;
70213;SDS011;60138;55.808;37.078;2022-11-20T02:53:01;16.80;;;11.52;;
70213;SDS011;60138;55.808;37.078;2022-11-20T02:55:27;16.67;;;9.98;;
70213;SDS011;60138;55.808;37.078;2022-11-20T02:57:52;17.97;;;12.63;;
70213;SDS011;60138;55.808;37.078;2022-11-20T03:00:18;15.90;;;9.65;;
70213;SDS011;60138;55.808;37.078;2022-11-20T03:02:44;19.47;;;11.50;;
70213;SDS011;60138;55.808;37.078;2022-11-20T03:05:10;14.57;;;9.23;;
70213;SDS011;60138;55.808;37.078;2022-11-20T03:07:35;17.43;;;10.07;;
70213;SDS011;60138;55.808;37.078;2022-11-20T03:10:01;18.38;;;10.38;;
70213;SDS011;60138;55.808;37.078;2022-11-20T03:12:28;20.30;;;11.23;;
70213;SDS011;60138;55.808;37.078;2022-11-20T03:14:54;16.75;;;10.13;;
70213;SDS011;60138;55.808;37.078;2022-11-20T03:17:19;15.53;;;9.87;;
70213;SDS011;60138;55.808;37.078;2022-11-20T03:19:45;16.27;;;10.30;;
70213;SDS011;60138;55.808;37.078;2022-11-20T03:22:11;13.73;;;9.20;;
70213;SDS011;60138;55.808;37.078;2022-11-20T03:24:37;15.52;;;9.60;;
70213;SDS011;60138;55.808;37.078;2022-11-20T03:27:02;17.03;;;10.10;;
70213;SDS011;60138;55.808;37.078;2022-11-20T03:29:28;15.32;;;10.40;;
70213;SDS011;60138;55.808;37.078;2022-11-20T03:31:54;17.35;;;10.85;;
70213;SDS011;60138;55.808;37.078;2022-11-20T03:34:19;18.53;;;11.50;;
70213;SDS011;60138;55.808;37.078;2022-11-20T03:36:45;18.80;;;10.75;;
70213;SDS011;60138;55.808;37.078;2022-11-20T03:39:12;18.52;;;10.98;;
70213;SDS011;60138;55.808;37.078;2022-11-20T03:41:39;18.27;;;10.57;;
70213;SDS011;60138;55.808;37.078;2022-11-20T03:44:07;18.30;;;11.88;;
70213;SDS011;60138;55.808;37.078;2022-11-20T03:46:34;16.60;;;9.55;;
70213;SDS011;60138;55.808;37.078;2022-11-20T03:49:00;19.70;;;11.30;;
70213;SDS011;60138;55.808;37.078;2022-11-20T03:51:29;19.42;;;11.07;;
70213;SDS011;60138;55.808;37.078;2022-11-20T03:54:00;19.63;;;10.63;;
70213;SDS011;60138;55.808;37.078;2022-11-20T03:56:29;13.98;;;9.85;;
70213;SDS011;60138;55.808;37.078;2022-11-20T03:58:56;17.48;;;10.73;;
70213;SDS011;60138;55.808;37.078;2022-11-20T04:01:24;16.88;;;10.40;;
70213;SDS011;60138;55.808;37.078;2022-11-20T04:03:54;13.05;;;8.98;;
70213;SDS011;60138;55.808;37.078;2022-11-20T04:06:25;16.13;;;10.23;;
70213;SDS011;60138;55.808;37.078;2022-11-20T04:08:58;16.55;;;10.10;;
70213;SDS011;60138;55.808;37.078;2022-11-20T04:13:56;18.07;;;10.10;;
70213;SDS011;60138;55.808;37.078;2022-11-20T04:16:24;15.50;;;8.93;;
70213;SDS011;60138;55.808;37.078;2022-11-20T04:18:54;17.40;;;9.80;;
70213;SDS011;60138;55.808;37.078;2022-11-20T04:21:21;16.87;;;10.13;;
70213;SDS011;60138;55.808;37.078;2022-11-20T04:23:47;17.52;;;10.93;;
70213;SDS011;60138;55.808;37.078;2022-11-20T04:26:13;14.23;;;9.38;;
70213;SDS011;60138;55.808;37.078;2022-11-20T04:28:39;17.10;;;10.47;;
70213;SDS011;60138;55.808;37.078;2022-11-20T04:31:08;15.80;;;9.88;;
70213;SDS011;60138;55.808;37.078;2022-11-20T04:33:39;15.23;;;9.15;;
70213;SDS011;60138;55.808;37.078;2022-11-20T04:36:15;17.13;;;9.80;;
70213;SDS011;60138;55.808;37.078;2022-11-20T04:38:45;15.75;;;10.35;;
70213;SDS011;60138;55.808;37.078;2022-11-20T04:41:15;16.33;;;9.32;;
70213;SDS011;60138;55.808;37.078;2022-11-20T04:43:45;16.00;;;9.87;;
70213;SDS011;60138;55.808;37.078;2022-11-20T04:46:12;15.18;;;8.40;;
70213;SDS011;60138;55.808;37.078;2022-11-20T04:48:38;17.08;;;10.57;;
70213;SDS011;60138;55.808;37.078;2022-11-20T04:51:04;16.00;;;9.53;;
70213;SDS011;60138;55.808;37.078;2022-11-20T04:53:30;17.45;;;9.77;;
70213;SDS011;60138;55.808;37.078;2022-11-20T04:55:59;14.13;;;9.47;;
70213;SDS011;60138;55.808;37.078;2022-11-20T04:58:26;19.30;;;10.70;;
70213;SDS011;60138;55.808;37.078;2022-11-20T05:00:51;17.25;;;11.15;;
70213;SDS011;60138;55.808;37.078;2022-11-20T05:03:17;17.37;;;10.20;;
70213;SDS011;60138;55.808;37.078;2022-11-20T05:05:43;17.92;;;10.43;;
70213;SDS011;60138;55.808;37.078;2022-11-20T05:08:09;17.77;;;9.95;;
70213;SDS011;60138;55.808;37.078;2022-11-20T05:10:34;15.63;;;10.43;;
70213;SDS011;60138;55.808;37.078;2022-11-20T05:13:00;17.00;;;10.00;;
70213;SDS011;60138;55.808;37.078;2022-11-20T05:15:26;18.40;;;10.40;;
70213;SDS011;60138;55.808;37.078;2022-11-20T05:17:52;19.50;;;10.80;;
70213;SDS011;60138;55.808;37.078;2022-11-20T05:20:18;22.20;;;10.38;;
70213;SDS011;60138;55.808;37.078;2022-11-20T05:22:45;18.77;;;11.45;;
70213;SDS011;60138;55.808;37.078;2022-11-20T05:25:11;16.52;;;10.82;;
70213;SDS011;60138;55.808;37.078;2022-11-20T05:27:37;17.00;;;10.48;;
70213;SDS011;60138;55.808;37.078;2022-11-20T05:30:04;18.20;;;10.13;;
70213;SDS011;60138;55.808;37.078;2022-11-20T05:32:30;16.83;;;10.88;;
70213;SDS011;60138;55.808;37.078;2022-11-20T05:34:56;17.77;;;10.37;;
70213;SDS011;60138;55.808;37.078;2022-11-20T05:37:22;17.17;;;10.20;;
70213;SDS011;60138;55.808;37.078;2022-11-20T05:39:47;21.75;;;12.25;;
70213;SDS011;60138;55.808;37.078;2022-11-20T05:42:13;19.70;;;11.80;;
70213;SDS011;60138;55.808;37.078;2022-11-20T05:44:39;18.83;;;11.52;;
70213;SDS011;60138;55.808;37.078;2022-11-20T05:47:05;19.97;;;13.03;;
70213;SDS011;60138;55.808;37.078;2022-11-20T05:49:31;16.42;;;10.18;;
70213;SDS011;60138;55.808;37.078;2022-11-20T05:51:57;14.95;;;9.82;;
70213;SDS011;60138;55.808;37.078;2022-11-20T05:54:22;21.47;;;11.83;;
70213;SDS011;60138;55.808;37.078;2022-11-20T05:56:48;17.42;;;10.70;;
70213;SDS011;60138;55.808;37.078;2022-11-20T05:59:14;18.17;;;10.43;;
70213;SDS011;60138;55.808;37.078;2022-11-20T06:01:40;16.90;;;10.95;;
70213;SDS011;60138;55.808;37.078;2022-11-20T06:04:06;19.47;;;11.87;;
70213;SDS011;60138;55.808;37.078;2022-11-20T06:06:31;19.75;;;10.43;;
70213;SDS011;60138;55.808;37.078;2022-11-20T06:08:57;17.47;;;9.93;;
70213;SDS011;60138;55.808;37.078;2022-11-20T06:11:23;16.17;;;11.13;;
70213;SDS011;60138;55.808;37.078;2022-11-20T06:13:49;19.73;;;10.93;;
70213;SDS011;60138;55.808;37.078;2022-11-20T06:16:16;18.20;;;10.83;;
70213;SDS011;60138;55.808;37.078;2022-11-20T06:18:43;19.52;;;9.95;;
70213;SDS011;60138;55.808;37.078;2022-11-20T06:21:14;19.13;;;10.73;;
70213;SDS011;60138;55.808;37.078;2022-11-20T06:23:41;18.67;;;10.45;;
70213;SDS011;60138;55.808;37.078;2022-11-20T06:26:10;20.58;;;12.18;;
70213;SDS011;60138;55.808;37.078;2022-11-20T06:28:40;22.02;;;11.90;;
70213;SDS011;60138;55.808;37.078;2022-11-20T06:31:07;21.00;;;10.85;;
70213;SDS011;60138;55.808;37.078;2022-11-20T06:33:35;21.77;;;10.67;;
70213;SDS011;60138;55.808;37.078;2022-11-20T06:36:01;20.08;;;11.50;;
70213;SDS011;60138;55.808;37.078;2022-11-20T06:38:28;22.08;;;11.45;;
70213;SDS011;60138;55.808;37.078;2022-11-20T06:40:54;19.97;;;11.03;;
70213;SDS011;60138;55.808;37.078;2022-11-20T06:43:21;18.70;;;10.68;;
70213;SDS011;60138;55.808;37.078;2022-11-20T06:45:54;18.73;;;12.02;;
70213;SDS011;60138;55.808;37.078;2022-11-20T06:48:21;18.48;;;12.18;;
70213;SDS011;60138;55.808;37.078;2022-11-20T06:50:48;22.15;;;11.77;;
70213;SDS011;60138;55.808;37.078;2022-11-20T06:53:14;20.80;;;11.45;;
70213;SDS011;60138;55.808;37.078;2022-11-20T06:55:44;19.30;;;11.10;;
70213;SDS011;60138;55.808;37.078;2022-11-20T06:58:11;22.90;;;10.53;;
70213;SDS011;60138;55.808;37.078;2022-11-20T07:00:40;18.20;;;11.00;;
70213;SDS011;60138;55.808;37.078;2022-11-20T07:03:07;21.60;;;11.90;;
70213;SDS011;60138;55.808;37.078;2022-11-20T07:05:34;20.90;;;12.07;;
70213;SDS011;60138;55.808;37.078;2022-11-20T07:08:01;21.83;;;11.60;;
70213;SDS011;60138;55.808;37.078;2022-11-20T07:10:28;20.35;;;12.00;;
70213;SDS011;60138;55.808;37.078;2022-11-20T07:12:54;20.42;;;11.00;;
70213;SDS011;60138;55.808;37.078;2022-11-20T07:15:22;20.30;;;11.43;;
70213;SDS011;60138;55.808;37.078;2022-11-20T07:17:49;27.50;;;13.50;;
70213;SDS011;60138;55.808;37.078;2022-11-20T07:20:15;23.20;;;14.10;;
70213;SDS011;60138;55.808;37.078;2022-11-20T07:22:41;24.33;;;11.43;;
70213;SDS011;60138;55.808;37.078;2022-11-20T07:25:08;21.20;;;11.50;;
70213;SDS011;60138;55.808;37.078;2022-11-20T07:27:34;21.40;;;11.00;;
70213;SDS011;60138;55.808;37.078;2022-11-20T07:30:00;21.20;;;11.98;;
70213;SDS011;60138;55.808;37.078;2022-11-20T07:32:29;22.48;;;12.90;;
70213;SDS011;60138;55.808;37.078;2022-11-20T07:34:55;25.13;;;12.52;;
70213;SDS011;60138;55.808;37.078;2022-11-20T07:37:21;33.20;;;13.88;;
70213;SDS011;60138;55.808;37.078;2022-11-20T07:39:47;20.50;;;12.00;;
70213;SDS011;60138;55.808;37.078;2022-11-20T07:42:13;21.27;;;12.45;;
70213;SDS011;60138;55.808;37.078;2022-11-20T07:44:39;25.80;;;13.07;;
70213;SDS011;60138;55.808;37.078;2022-11-20T07:47:05;22.70;;;13.13;;
70213;SDS011;60138;55.808;37.078;2022-11-20T07:49:31;19.95;;;12.00;;
70213;SDS011;60138;55.808;37.078;2022-11-20T07:51:57;24.88;;;13.80;;
70213;SDS011;60138;55.808;37.078;2022-11-20T07:54:22;19.58;;;12.23;;
70213;SDS011;60138;55.808;37.078;2022-11-20T07:56:48;22.20;;;13.07;;
70213;SDS011;60138;55.808;37.078;2022-11-20T07:59:14;21.43;;;11.87;;
70213;SDS011;60138;55.808;37.078;2022-11-20T08:01:40;21.80;;;12.30;;
70213;SDS011;60138;55.808;37.078;2022-11-20T08:04:06;22.95;;;12.38;;
70213;SDS011;60138;55.808;37.078;2022-11-20T08:06:33;23.85;;;14.32;;
70213;SDS011;60138;55.808;37.078;2022-11-20T08:08:59;21.73;;;12.60;;
70213;SDS011;60138;55.808;37.078;2022-11-20T08:11:25;27.73;;;13.77;;
70213;SDS011;60138;55.808;37.078;2022-11-20T08:13:51;23.95;;;12.75;;
70213;SDS011;60138;55.808;37.078;2022-11-20T08:16:16;25.00;;;13.73;;
70213;SDS011;60138;55.808;37.078;2022-11-20T08:18:42;21.80;;;12.32;;
70213;SDS011;60138;55.808;37.078;2022-11-20T08:21:07;25.67;;;13.53;;
70213;SDS011;60138;55.808;37.078;2022-11-20T08:23:33;24.48;;;13.65;;
70213;SDS011;60138;55.808;37.078;2022-11-20T08:25:59;24.38;;;11.57;;
70213;SDS011;60138;55.808;37.078;2022-11-20T08:28:25;30.42;;;13.60;;
70213;SDS011;60138;55.808;37.078;2022-11-20T08:30:50;26.53;;;13.40;;
70213;SDS011;60138;55.808;37.078;2022-11-20T08:33:16;24.75;;;13.40;;
70213;SDS011;60138;55.808;37.078;2022-11-20T08:35:42;26.95;;;13.50;;
70213;SDS011;60138;55.808;37.078;2022-11-20T08:38:08;31.50;;;15.30;;
70213;SDS011;60138;55.808;37.078;2022-11-20T08:40:34;27.63;;;14.37;;
70213;SDS011;60138;55.808;37.078;2022-11-20T08:43:00;30.10;;;13.57;;
70213;SDS011;60138;55.808;37.078;2022-11-20T08:45:26;24.77;;;13.60;;
70213;SDS011;60138;55.808;37.078;2022-11-20T08:47:52;27.63;;;13.57;;
70213;SDS011;60138;55.808;37.078;2022-11-20T08:50:18;28.00;;;13.65;;
70213;SDS011;60138;55.808;37.078;2022-11-20T08:52:43;25.07;;;14.40;;
70213;SDS011;60138;55.808;37.078;2022-11-20T08:55:09;26.20;;;14.20;;
70213;SDS011;60138;55.808;37.078;2022-11-20T08:57:35;30.92;;;15.40;;
70213;SDS011;60138;55.808;37.078;2022-11-20T09:00:03;36.47;;;15.13;;
70213;SDS011;60138;55.808;37.078;2022-11-20T09:02:30;27.25;;;13.70;;
70213;SDS011;60138;55.808;37.078;2022-11-20T09:04:55;27.40;;;14.47;;
70213;SDS011;60138;55.808;37.078;2022-11-20T09:07:21;30.10;;;15.70;;
70213;SDS011;60138;55.808;37.078;2022-11-20T09:09:47;31.60;;;14.30;;
70213;SDS011;60138;55.808;37.078;2022-11-20T09:12:13;21.33;;;12.98;;
70213;SDS011;60138;55.808;37.078;2022-11-20T09:14:39;28.23;;;14.50;;
70213;SDS011;60138;55.808;37.078;2022-11-20T09:17:04;27.77;;;15.13;;
70213;SDS011;60138;55.808;37.078;2022-11-20T09:19:30;22.50;;;14.33;;
70213;SDS011;60138;55.808;37.078;2022-11-20T09:21:56;27.52;;;14.93;;
70213;SDS011;60138;55.808;37.078;2022-11-20T09:24:21;26.03;;;14.37;;
70213;SDS011;60138;55.808;37.078;2022-11-20T09:26:47;29.80;;;15.02;;
70213;SDS011;60138;55.808;37.078;2022-11-20T09:29:13;28.45;;;14.52;;
70213;SDS011;60138;55.808;37.078;2022-11-20T09:31:38;30.87;;;15.10;;
70213;SDS011;60138;55.808;37.078;2022-11-20T09:34:04;30.65;;;14.57;;
70213;SDS011;60138;55.808;37.078;2022-11-20T09:36:30;25.53;;;14.27;;
70213;SDS011;60138;55.808;37.078;2022-11-20T09:38:55;31.60;;;16.08;;
70213;SDS011;60138;55.808;37.078;2022-11-20T09:47:05;35.30;;;16.35;;
70213;SDS011;60138;55.808;37.078;2022-11-20T09:49:59;26.40;;;15.13;;
70213;SDS011;60138;55.808;37.078;2022-11-20T09:55:29;35.63;;;15.95;;
70213;SDS011;60138;55.808;37.078;2022-11-20T09:57:56;31.77;;;16.03;;
70213;SDS011;60138;55.808;37.078;2022-11-20T10:00:24;28.67;;;13.57;;
70213;SDS011;60138;55.808;37.078;2022-11-20T10:02:55;27.00;;;13.85;;
70213;SDS011;60138;55.808;37.078;2022-11-20T10:05:27;30.33;;;16.60;;
70213;SDS011;60138;55.808;37.078;2022-11-20T10:11:04;35.38;;;14.10;;
70213;SDS011;60138;55.808;37.078;2022-11-20T10:13:40;25.42;;;13.75;;
70213;SDS011;60138;55.808;37.078;2022-11-20T10:16:22;22.92;;;14.45;;
70213;SDS011;60138;55.808;37.078;2022-11-20T10:29:34;27.73;;;15.47;;
70213;SDS011;60138;55.808;37.078;2022-11-20T10:32:03;30.48;;;14.77;;
70213;SDS011;60138;55.808;37.078;2022-11-20T10:34:42;25.33;;;14.63;;
70213;SDS011;60138;55.808;37.078;2022-11-20T10:37:32;29.75;;;15.55;;
70213;SDS011;60138;55.808;37.078;2022-11-20T10:42:57;28.58;;;14.82;;
70213;SDS011;60138;55.808;37.078;2022-11-20T10:48:10;25.67;;;14.13;;
70213;SDS011;60138;55.808;37.078;2022-11-20T10:50:36;22.60;;;12.95;;
70213;SDS011;60138;55.808;37.078;2022-11-20T10:56:25;27.20;;;15.60;;
70213;SDS011;60138;55.808;37.078;2022-11-20T11:02:00;25.50;;;12.63;;
70213;SDS011;60138;55.808;37.078;2022-11-20T11:10:05;18.63;;;11.10;;
70213;SDS011;60138;55.808;37.078;2022-11-20T11:12:45;18.90;;;12.10;;
70213;SDS011;60138;55.808;37.078;2022-11-20T11:15:36;18.17;;;9.65;;
70213;SDS011;60138;55.808;37.078;2022-11-20T11:18:05;19.20;;;9.55;;
70213;SDS011;60138;55.808;37.078;2022-11-20T11:20:35;23.13;;;12.48;;
70213;SDS011;60138;55.808;37.078;2022-11-20T11:23:00;18.33;;;11.37;;
70213;SDS011;60138;55.808;37.078;2022-11-20T11:25:27;15.13;;;9.77;;
70213;SDS011;60138;55.808;37.078;2022-11-20T11:27:58;21.90;;;10.85;;
70213;SDS011;60138;55.808;37.078;2022-11-20T11:30:26;19.92;;;11.48;;
70213;SDS011;60138;55.808;37.078;2022-11-20T11:33:38;19.63;;;11.25;;
70213;SDS011;60138;55.808;37.078;2022-11-20T11:35:53;17.02;;;10.20;;
70213;SDS011;60138;55.808;37.078;2022-11-20T11:41:07;20.55;;;12.23;;
70213;SDS011;60138;55.808;37.078;2022-11-20T11:43:38;20.13;;;10.50;;
70213;SDS011;60138;55.808;37.078;2022-11-20T11:46:05;20.97;;;11.17;;
70213;SDS011;60138;55.808;37.078;2022-11-20T11:49:11;19.27;;;11.40;;
70213;SDS011;60138;55.808;37.078;2022-11-20T11:51:45;15.70;;;10.23;;
70213;SDS011;60138;55.808;37.078;2022-11-20T12:02:57;19.20;;;10.82;;
70213;SDS011;60138;55.808;37.078;2022-11-20T12:05:39;18.03;;;10.87;;
70213;SDS011;60138;55.808;37.078;2022-11-20T12:16:34;11.73;;;7.90;;
70213;SDS011;60138;55.808;37.078;2022-11-20T12:19:04;15.68;;;10.40;;
70213;SDS011;60138;55.808;37.078;2022-11-20T12:21:39;16.75;;;9.38;;
70213;SDS011;60138;55.808;37.078;2022-11-20T12:24:20;22.23;;;14.20;;
70213;SDS011;60138;55.808;37.078;2022-11-20T12:30:26;22.52;;;13.05;;
70213;SDS011;60138;55.808;37.078;2022-11-20T12:43:45;28.48;;;14.13;;
70213;SDS011;60138;55.808;37.078;2022-11-20T12:49:27;50.35;;;23.48;;
70213;SDS011;60138;55.808;37.078;2022-11-20T12:52:36;34.22;;;16.85;;
70213;SDS011;60138;55.808;37.078;2022-11-20T12:55:16;24.40;;;12.52;;
70213;SDS011;60138;55.808;37.078;2022-11-20T13:00:55;20.23;;;12.57;;
70213;SDS011;60138;55.808;37.078;2022-11-20T13:06:05;23.48;;;12.50;;
70213;SDS011;60138;55.808;37.078;2022-11-20T13:08:39;24.23;;;13.33;;
70213;SDS011;60138;55.808;37.078;2022-11-20T13:16:21;24.17;;;12.70;;
70213;SDS011;60138;55.808;37.078;2022-11-20T13:19:00;33.38;;;18.48;;
70213;SDS011;60138;55.808;37.078;2022-11-20T13:21:38;25.90;;;17.67;;
70213;SDS011;60138;55.808;37.078;2022-11-20T13:24:06;20.55;;;14.25;;
70213;SDS011;60138;55.808;37.078;2022-11-20T13:26:33;19.83;;;12.27;;
70213;SDS011;60138;55.808;37.078;2022-11-20T13:29:01;24.42;;;13.02;;
70213;SDS011;60138;55.808;37.078;2022-11-20T13:31:35;25.07;;;14.40;;
70213;SDS011;60138;55.808;37.078;2022-11-20T13:34:05;23.95;;;13.52;;
70213;SDS011;60138;55.808;37.078;2022-11-20T13:36:32;26.08;;;14.05;;
70213;SDS011;60138;55.808;37.078;2022-11-20T13:38:58;22.03;;;12.13;;
70213;SDS011;60138;55.808;37.078;2022-11-20T13:41:25;20.27;;;11.45;;
70213;SDS011;60138;55.808;37.078;2022-11-20T13:43:53;14.57;;;9.18;;
70213;SDS011;60138;55.808;37.078;2022-11-20T13:46:23;18.70;;;11.03;;
70213;SDS011;60138;55.808;37.078;2022-11-20T13:48:59;48.58;;;21.73;;
70213;SDS011;60138;55.808;37.078;2022-11-20T13:51:44;71.75;;;28.40;;
70213;SDS011;60138;55.808;37.078;2022-11-20T14:02:21;28.33;;;15.02;;
70213;SDS011;60138;55.808;37.078;2022-11-20T14:04:51;17.93;;;11.20;;
70213;SDS011;60138;55.808;37.078;2022-11-20T14:07:20;20.48;;;13.05;;
70213;SDS011;60138;55.808;37.078;2022-11-20T14:09:50;21.27;;;13.63;;
70213;SDS011;60138;55.808;37.078;2022-11-20T14:12:19;18.83;;;11.87;;
70213;SDS011;60138;55.808;37.078;2022-11-20T14:14:47;25.20;;;14.00;;
70213;SDS011;60138;55.808;37.078;2022-11-20T14:17:23;20.88;;;11.07;;
70213;SDS011;60138;55.808;37.078;2022-11-20T14:19:52;26.85;;;15.40;;
70213;SDS011;60138;55.808;37.078;2022-11-20T14:22:19;46.38;;;20.63;;
70213;SDS011;60138;55.808;37.078;2022-11-20T14:24:47;29.63;;;14.10;;
70213;SDS011;60138;55.808;37.078;2022-11-20T14:27:18;43.20;;;19.95;;
70213;SDS011;60138;55.808;37.078;2022-11-20T14:29:46;28.53;;;14.17;;
70213;SDS011;60138;55.808;37.078;2022-11-20T14:32:15;25.35;;;13.95;;
70213;SDS011;60138;55.808;37.078;2022-11-20T14:34:43;23.45;;;13.18;;
70213;SDS011;60138;55.808;37.078;2022-11-20T14:37:13;22.33;;;12.97;;
70213;SDS011;60138;55.808;37.078;2022-11-20T14:39:49;17.65;;;9.63;;
70213;SDS011;60138;55.808;37.078;2022-11-20T14:42:24;22.45;;;11.98;;
70213;SDS011;60138;55.808;37.078;2022-11-20T14:44:52;21.33;;;12.88;;
70213;SDS011;60138;55.808;37.078;2022-11-20T14:47:21;19.25;;;11.70;;
70213;SDS011;60138;55.808;37.078;2022-11-20T14:49:50;19.02;;;12.50;;
70213;SDS011;60138;55.808;37.078;2022-11-20T14:52:22;20.73;;;11.38;;
70213;SDS011;60138;55.808;37.078;2022-11-20T14:54:53;19.93;;;11.30;;
70213;SDS011;60138;55.808;37.078;2022-11-20T14:57:28;19.65;;;12.73;;
70213;SDS011;60138;55.808;37.078;2022-11-20T15:02:47;21.83;;;13.83;;
70213;SDS011;60138;55.808;37.078;2022-11-20T15:05:14;23.30;;;13.45;;
70213;SDS011;60138;55.808;37.078;2022-11-20T15:07:42;23.63;;;13.30;;
70213;SDS011;60138;55.808;37.078;2022-11-20T15:10:10;23.73;;;12.45;;
70213;SDS011;60138;55.808;37.078;2022-11-20T15:12:52;20.70;;;13.32;;
70213;SDS011;60138;55.808;37.078;2022-11-20T15:18:02;22.17;;;13.88;;
70213;SDS011;60138;55.808;37.078;2022-11-20T15:20:30;25.30;;;13.07;;
70213;SDS011;60138;55.808;37.078;2022-11-20T15:22:57;19.98;;;11.90;;
70213;SDS011;60138;55.808;37.078;2022-11-20T15:25:23;19.13;;;10.27;;
70213;SDS011;60138;55.808;37.078;2022-11-20T15:27:49;20.57;;;11.63;;
70213;SDS011;60138;55.808;37.078;2022-11-20T15:30:25;17.13;;;9.93;;
70213;SDS011;60138;55.808;37.078;2022-11-20T15:32:51;16.57;;;10.53;;
70213;SDS011;60138;55.808;37.078;2022-11-20T15:35:16;20.55;;;11.93;;
70213;SDS011;60138;55.808;37.078;2022-11-20T15:37:42;24.05;;;12.57;;
70213;SDS011;60138;55.808;37.078;2022-11-20T15:40:08;27.87;;;15.17;;
70213;SDS011;60138;55.808;37.078;2022-11-20T15:42:34;26.48;;;13.45;;
70213;SDS011;60138;55.808;37.078;2022-11-20T15:45:03;21.23;;;12.93;;
70213;SDS011;60138;55.808;37.078;2022-11-20T15:47:31;26.57;;;13.50;;
70213;SDS011;60138;55.808;37.078;2022-11-20T15:49:59;24.42;;;12.45;;
70213;SDS011;60138;55.808;37.078;2022-11-20T15:52:25;23.33;;;13.18;;
70213;SDS011;60138;55.808;37.078;2022-11-20T15:54:51;26.63;;;14.33;;
70213;SDS011;60138;55.808;37.078;2022-11-20T15:57:17;20.33;;;12.05;;
70213;SDS011;60138;55.808;37.078;2022-11-20T15:59:43;22.33;;;14.27;;
70213;SDS011;60138;55.808;37.078;2022-11-20T16:02:11;21.23;;;10.90;;
70213;SDS011;60138;55.808;37.078;2022-11-20T16:04:38;22.90;;;12.35;;
70213;SDS011;60138;55.808;37.078;2022-11-20T16:07:03;21.83;;;12.13;;
70213;SDS011;60138;55.808;37.078;2022-11-20T16:09:30;23.45;;;12.52;;
70213;SDS011;60138;55.808;37.078;2022-11-20T16:11:55;18.65;;;11.35;;